sensor_id;sensor_type;location;lat;lon;timestamp;temperature;humidity
19254;DHT22;9761;50.926;5.330;2022-08-27T00:00:48;18.40;99.90
19254;DHT22;9761;50.926;5.330;2022-08-27T00:03:15;18.30;99.90
19254;DHT22;9761;50.926;5.330;2022-08-27T00:05:43;18.30;99.90
19254;DHT22;9761;50.926;5.330;2022-08-27T00:08:10;18.20;99.90
19254;DHT22;9761;50.926;5.330;2022-08-27T00:10:37;18.10;99.90
19254;DHT22;9761;50.926;5.330;2022-08-27T00:13:11;17.90;99.90
19254;DHT22;9761;50.926;5.330;2022-08-27T00:15:53;17.60;99.90
19254;DHT22;9761;50.926;5.330;2022-08-27T00:18:34;17.30;99.90
19254;DHT22;9761;50.926;5.330;2022-08-27T00:24:02;17.20;99.90
19254;DHT22;9761;50.926;5.330;2022-08-27T00:26:29;17.40;99.90
19254;DHT22;9761;50.926;5.330;2022-08-27T00:28:55;17.60;99.90
19254;DHT22;9761;50.926;5.330;2022-08-27T00:31:24;17.40;99.90
19254;DHT22;9761;50.926;5.330;2022-08-27T00:33:50;17.20;99.90
19254;DHT22;9761;50.926;5.330;2022-08-27T00:36:17;17.20;99.90
19254;DHT22;9761;50.926;5.330;2022-08-27T00:38:44;17.30;99.90
19254;DHT22;9761;50.926;5.330;2022-08-27T00:41:11;17.30;99.90
19254;DHT22;9761;50.926;5.330;2022-08-27T00:43:43;17.50;99.90
19254;DHT22;9761;50.926;5.330;2022-08-27T00:46:13;17.30;99.90
19254;DHT22;9761;50.926;5.330;2022-08-27T00:48:44;17.10;99.90
19254;DHT22;9761;50.926;5.330;2022-08-27T00:51:11;17.00;99.90
19254;DHT22;9761;50.926;5.330;2022-08-27T00:53:38;17.10;99.90
19254;DHT22;9761;50.926;5.330;2022-08-27T00:56:07;17.00;99.90
19254;DHT22;9761;50.926;5.330;2022-08-27T00:58:51;17.00;99.90
19254;DHT22;9761;50.926;5.330;2022-08-27T01:01:19;16.90;99.90
19254;DHT22;9761;50.926;5.330;2022-08-27T01:03:50;17.00;99.90
19254;DHT22;9761;50.926;5.330;2022-08-27T01:06:18;17.10;99.90
19254;DHT22;9761;50.926;5.330;2022-08-27T01:08:47;17.10;99.90
19254;DHT22;9761;50.926;5.330;2022-08-27T01:11:16;17.00;99.90
19254;DHT22;9761;50.926;5.330;2022-08-27T01:13:43;16.80;99.90
19254;DHT22;9761;50.926;5.330;2022-08-27T01:16:09;16.70;99.90
19254;DHT22;9761;50.926;5.330;2022-08-27T01:18:37;16.70;99.90
19254;DHT22;9761;50.926;5.330;2022-08-27T01:21:07;16.60;99.90
19254;DHT22;9761;50.926;5.330;2022-08-27T01:23:36;16.70;99.90
19254;DHT22;9761;50.926;5.330;2022-08-27T01:26:14;16.80;99.90
19254;DHT22;9761;50.926;5.330;2022-08-27T01:34:50;16.80;99.90
19254;DHT22;9761;50.926;5.330;2022-08-27T01:37:20;16.70;99.90
19254;DHT22;9761;50.926;5.330;2022-08-27T01:39:47;16.80;99.90
19254;DHT22;9761;50.926;5.330;2022-08-27T01:42:15;16.70;99.90
19254;DHT22;9761;50.926;5.330;2022-08-27T01:44:44;16.70;99.90
19254;DHT22;9761;50.926;5.330;2022-08-27T01:47:11;16.70;99.90
19254;DHT22;9761;50.926;5.330;2022-08-27T01:49:38;16.60;99.90
19254;DHT22;9761;50.926;5.330;2022-08-27T01:52:05;16.40;99.90
19254;DHT22;9761;50.926;5.330;2022-08-27T01:54:32;16.50;99.90
19254;DHT22;9761;50.926;5.330;2022-08-27T01:56:59;16.40;99.90
19254;DHT22;9761;50.926;5.330;2022-08-27T01:59:28;16.50;99.90
19254;DHT22;9761;50.926;5.330;2022-08-27T02:01:54;16.40;99.90
19254;DHT22;9761;50.926;5.330;2022-08-27T02:04:22;16.40;99.90
19254;DHT22;9761;50.926;5.330;2022-08-27T02:06:49;16.40;99.90
19254;DHT22;9761;50.926;5.330;2022-08-27T02:09:15;16.40;99.90
19254;DHT22;9761;50.926;5.330;2022-08-27T02:11:42;16.30;99.90
19254;DHT22;9761;50.926;5.330;2022-08-27T02:14:09;16.20;99.90
19254;DHT22;9761;50.926;5.330;2022-08-27T02:16:38;16.20;99.90
19254;DHT22;9761;50.926;5.330;2022-08-27T02:19:05;16.10;99.90
19254;DHT22;9761;50.926;5.330;2022-08-27T02:24:16;16.20;99.90
19254;DHT22;9761;50.926;5.330;2022-08-27T02:26:43;16.10;99.90
19254;DHT22;9761;50.926;5.330;2022-08-27T02:29:10;16.10;99.90
19254;DHT22;9761;50.926;5.330;2022-08-27T02:31:38;16.10;99.90
19254;DHT22;9761;50.926;5.330;2022-08-27T02:34:06;16.10;99.90
19254;DHT22;9761;50.926;5.330;2022-08-27T02:36:33;16.10;99.90
19254;DHT22;9761;50.926;5.330;2022-08-27T02:39:01;16.00;99.90
19254;DHT22;9761;50.926;5.330;2022-08-27T02:41:29;15.90;99.90
19254;DHT22;9761;50.926;5.330;2022-08-27T02:44:16;16.00;99.90
19254;DHT22;9761;50.926;5.330;2022-08-27T02:46:44;16.10;99.90
19254;DHT22;9761;50.926;5.330;2022-08-27T02:49:11;16.10;99.90
19254;DHT22;9761;50.926;5.330;2022-08-27T02:51:37;16.00;99.90
19254;DHT22;9761;50.926;5.330;2022-08-27T02:54:04;15.90;99.90
19254;DHT22;9761;50.926;5.330;2022-08-27T02:56:31;15.90;99.90
19254;DHT22;9761;50.926;5.330;2022-08-27T02:58:58;16.00;99.90
19254;DHT22;9761;50.926;5.330;2022-08-27T03:01:30;16.00;99.90
19254;DHT22;9761;50.926;5.330;2022-08-27T03:03:59;16.10;99.90
19254;DHT22;9761;50.926;5.330;2022-08-27T03:06:26;16.00;99.90
19254;DHT22;9761;50.926;5.330;2022-08-27T03:08:54;16.00;99.90
19254;DHT22;9761;50.926;5.330;2022-08-27T03:11:23;16.10;99.90
19254;DHT22;9761;50.926;5.330;2022-08-27T03:13:50;16.00;99.90
19254;DHT22;9761;50.926;5.330;2022-08-27T03:16:17;16.00;99.90
19254;DHT22;9761;50.926;5.330;2022-08-27T03:18:44;15.80;99.90
19254;DHT22;9761;50.926;5.330;2022-08-27T03:21:15;15.70;99.90
19254;DHT22;9761;50.926;5.330;2022-08-27T03:23:43;15.80;99.90
19254;DHT22;9761;50.926;5.330;2022-08-27T03:26:10;15.80;99.90
19254;DHT22;9761;50.926;5.330;2022-08-27T03:28:37;15.60;99.90
19254;DHT22;9761;50.926;5.330;2022-08-27T03:31:15;15.50;99.90
19254;DHT22;9761;50.926;5.330;2022-08-27T03:44:33;15.40;99.90
19254;DHT22;9761;50.926;5.330;2022-08-27T03:47:00;15.50;99.90
19254;DHT22;9761;50.926;5.330;2022-08-27T03:49:28;15.40;99.90
19254;DHT22;9761;50.926;5.330;2022-08-27T03:51:55;15.40;99.90
19254;DHT22;9761;50.926;5.330;2022-08-27T03:54:23;15.20;99.90
19254;DHT22;9761;50.926;5.330;2022-08-27T03:56:50;15.10;99.90
19254;DHT22;9761;50.926;5.330;2022-08-27T03:59:16;15.00;99.90
19254;DHT22;9761;50.926;5.330;2022-08-27T04:01:45;15.00;99.90
19254;DHT22;9761;50.926;5.330;2022-08-27T04:04:11;14.90;99.90
19254;DHT22;9761;50.926;5.330;2022-08-27T04:06:38;14.80;99.90
19254;DHT22;9761;50.926;5.330;2022-08-27T04:09:05;14.90;99.90
19254;DHT22;9761;50.926;5.330;2022-08-27T04:11:32;14.90;99.90
19254;DHT22;9761;50.926;5.330;2022-08-27T04:13:59;14.80;99.90
19254;DHT22;9761;50.926;5.330;2022-08-27T04:16:26;14.80;99.90
19254;DHT22;9761;50.926;5.330;2022-08-27T04:18:54;14.90;99.90
19254;DHT22;9761;50.926;5.330;2022-08-27T04:21:21;14.80;99.90
19254;DHT22;9761;50.926;5.330;2022-08-27T04:23:48;14.90;99.90
19254;DHT22;9761;50.926;5.330;2022-08-27T04:26:15;15.10;99.90
19254;DHT22;9761;50.926;5.330;2022-08-27T04:28:42;15.20;99.90
19254;DHT22;9761;50.926;5.330;2022-08-27T04:31:09;15.30;99.90
19254;DHT22;9761;50.926;5.330;2022-08-27T04:33:36;15.30;99.90
19254;DHT22;9761;50.926;5.330;2022-08-27T04:36:06;15.30;99.90
19254;DHT22;9761;50.926;5.330;2022-08-27T04:38:34;15.40;99.90
19254;DHT22;9761;50.926;5.330;2022-08-27T04:41:01;15.30;99.90
19254;DHT22;9761;50.926;5.330;2022-08-27T04:43:48;15.20;99.90
19254;DHT22;9761;50.926;5.330;2022-08-27T04:46:19;15.00;99.90
19254;DHT22;9761;50.926;5.330;2022-08-27T04:48:49;15.00;99.90
19254;DHT22;9761;50.926;5.330;2022-08-27T04:51:17;14.90;99.90
19254;DHT22;9761;50.926;5.330;2022-08-27T04:53:44;14.80;99.90
19254;DHT22;9761;50.926;5.330;2022-08-27T04:56:12;14.80;99.90
19254;DHT22;9761;50.926;5.330;2022-08-27T04:58:39;14.80;99.90
19254;DHT22;9761;50.926;5.330;2022-08-27T05:01:06;14.70;99.90
19254;DHT22;9761;50.926;5.330;2022-08-27T05:03:32;14.70;99.90
19254;DHT22;9761;50.926;5.330;2022-08-27T05:06:00;14.80;99.90
19254;DHT22;9761;50.926;5.330;2022-08-27T05:08:28;14.80;99.90
19254;DHT22;9761;50.926;5.330;2022-08-27T05:10:55;14.80;99.90
19254;DHT22;9761;50.926;5.330;2022-08-27T05:13:23;14.80;99.90
19254;DHT22;9761;50.926;5.330;2022-08-27T05:15:56;14.80;99.90
19254;DHT22;9761;50.926;5.330;2022-08-27T05:18:23;14.80;99.90
19254;DHT22;9761;50.926;5.330;2022-08-27T05:20:50;14.80;99.90
19254;DHT22;9761;50.926;5.330;2022-08-27T05:23:17;14.90;99.90
19254;DHT22;9761;50.926;5.330;2022-08-27T05:25:45;15.10;99.90
19254;DHT22;9761;50.926;5.330;2022-08-27T05:28:13;15.40;99.90
19254;DHT22;9761;50.926;5.330;2022-08-27T05:30:41;15.30;99.90
19254;DHT22;9761;50.926;5.330;2022-08-27T05:33:09;15.50;99.90
19254;DHT22;9761;50.926;5.330;2022-08-27T05:35:38;15.80;99.90
19254;DHT22;9761;50.926;5.330;2022-08-27T05:38:05;16.00;99.90
19254;DHT22;9761;50.926;5.330;2022-08-27T05:40:32;16.00;99.90
19254;DHT22;9761;50.926;5.330;2022-08-27T05:43:02;16.00;99.90
19254;DHT22;9761;50.926;5.330;2022-08-27T05:45:32;16.10;99.90
19254;DHT22;9761;50.926;5.330;2022-08-27T05:47:59;16.00;99.90
19254;DHT22;9761;50.926;5.330;2022-08-27T05:50:26;16.00;99.90
19254;DHT22;9761;50.926;5.330;2022-08-27T05:52:53;16.00;99.90
19254;DHT22;9761;50.926;5.330;2022-08-27T05:55:19;16.00;99.90
19254;DHT22;9761;50.926;5.330;2022-08-27T05:57:46;16.10;99.90
19254;DHT22;9761;50.926;5.330;2022-08-27T06:00:17;16.00;99.90
19254;DHT22;9761;50.926;5.330;2022-08-27T06:03:01;15.80;99.90
19254;DHT22;9761;50.926;5.330;2022-08-27T06:05:28;16.20;99.90
19254;DHT22;9761;50.926;5.330;2022-08-27T06:07:54;16.00;99.90
19254;DHT22;9761;50.926;5.330;2022-08-27T06:10:21;16.10;99.90
19254;DHT22;9761;50.926;5.330;2022-08-27T06:12:48;15.90;99.90
19254;DHT22;9761;50.926;5.330;2022-08-27T06:15:16;15.80;99.90
19254;DHT22;9761;50.926;5.330;2022-08-27T06:17:43;15.90;99.90
19254;DHT22;9761;50.926;5.330;2022-08-27T06:20:10;16.00;99.90
19254;DHT22;9761;50.926;5.330;2022-08-27T06:22:37;16.00;99.90
19254;DHT22;9761;50.926;5.330;2022-08-27T06:25:04;16.10;99.90
19254;DHT22;9761;50.926;5.330;2022-08-27T06:27:31;16.10;99.90
19254;DHT22;9761;50.926;5.330;2022-08-27T06:29:58;16.10;99.90
19254;DHT22;9761;50.926;5.330;2022-08-27T06:32:26;16.30;99.90
19254;DHT22;9761;50.926;5.330;2022-08-27T06:34:53;16.40;99.90
19254;DHT22;9761;50.926;5.330;2022-08-27T06:37:20;16.60;99.90
19254;DHT22;9761;50.926;5.330;2022-08-27T06:39:47;16.60;99.90
19254;DHT22;9761;50.926;5.330;2022-08-27T06:42:15;16.70;99.90
19254;DHT22;9761;50.926;5.330;2022-08-27T06:44:42;16.60;99.90
19254;DHT22;9761;50.926;5.330;2022-08-27T06:47:09;16.60;99.90
19254;DHT22;9761;50.926;5.330;2022-08-27T06:52:26;16.90;99.90
19254;DHT22;9761;50.926;5.330;2022-08-27T06:54:54;16.70;99.90
19254;DHT22;9761;50.926;5.330;2022-08-27T06:57:21;16.80;99.90
19254;DHT22;9761;50.926;5.330;2022-08-27T06:59:48;16.60;99.90
19254;DHT22;9761;50.926;5.330;2022-08-27T07:05:08;16.60;99.90
19254;DHT22;9761;50.926;5.330;2022-08-27T07:07:37;16.80;99.90
19254;DHT22;9761;50.926;5.330;2022-08-27T07:10:04;17.10;99.90
19254;DHT22;9761;50.926;5.330;2022-08-27T07:12:32;17.40;99.90
19254;DHT22;9761;50.926;5.330;2022-08-27T07:15:02;17.60;99.90
19254;DHT22;9761;50.926;5.330;2022-08-27T07:17:29;17.80;99.90
19254;DHT22;9761;50.926;5.330;2022-08-27T07:19:56;17.90;99.90
19254;DHT22;9761;50.926;5.330;2022-08-27T07:22:23;17.70;99.90
19254;DHT22;9761;50.926;5.330;2022-08-27T07:24:51;17.70;99.90
19254;DHT22;9761;50.926;5.330;2022-08-27T07:27:18;17.50;99.90
19254;DHT22;9761;50.926;5.330;2022-08-27T07:29:45;17.70;99.90
19254;DHT22;9761;50.926;5.330;2022-08-27T07:32:14;17.60;99.90
19254;DHT22;9761;50.926;5.330;2022-08-27T07:50:43;18.30;99.90
19254;DHT22;9761;50.926;5.330;2022-08-27T07:53:13;18.30;99.90
19254;DHT22;9761;50.926;5.330;2022-08-27T07:55:40;18.50;99.90
19254;DHT22;9761;50.926;5.330;2022-08-27T07:58:06;18.30;99.90
19254;DHT22;9761;50.926;5.330;2022-08-27T08:00:35;18.30;99.90
19254;DHT22;9761;50.926;5.330;2022-08-27T08:03:02;18.10;99.90
19254;DHT22;9761;50.926;5.330;2022-08-27T08:05:29;18.00;99.90
19254;DHT22;9761;50.926;5.330;2022-08-27T08:07:57;18.10;99.90
19254;DHT22;9761;50.926;5.330;2022-08-27T08:10:30;18.30;99.90
19254;DHT22;9761;50.926;5.330;2022-08-27T08:13:02;18.50;99.90
19254;DHT22;9761;50.926;5.330;2022-08-27T08:23:59;18.10;99.90
19254;DHT22;9761;50.926;5.330;2022-08-27T08:29:03;18.30;99.90
19254;DHT22;9761;50.926;5.330;2022-08-27T08:39:43;18.40;99.90
19254;DHT22;9761;50.926;5.330;2022-08-27T08:42:18;18.60;99.90
19254;DHT22;9761;50.926;5.330;2022-08-27T08:44:47;18.60;99.90
19254;DHT22;9761;50.926;5.330;2022-08-27T08:47:15;18.70;99.90
19254;DHT22;9761;50.926;5.330;2022-08-27T08:49:45;18.80;99.90
19254;DHT22;9761;50.926;5.330;2022-08-27T09:11:16;19.20;99.90
19254;DHT22;9761;50.926;5.330;2022-08-27T09:19:30;19.40;99.90
19254;DHT22;9761;50.926;5.330;2022-08-27T09:48:19;20.70;99.90
19254;DHT22;9761;50.926;5.330;2022-08-27T09:51:05;21.00;99.90
19254;DHT22;9761;50.926;5.330;2022-08-27T09:53:36;21.30;99.90
19254;DHT22;9761;50.926;5.330;2022-08-27T09:56:07;21.30;99.90
19254;DHT22;9761;50.926;5.330;2022-08-27T09:58:43;21.20;99.90
19254;DHT22;9761;50.926;5.330;2022-08-27T10:01:15;21.50;99.90
19254;DHT22;9761;50.926;5.330;2022-08-27T10:03:44;21.70;99.90
19254;DHT22;9761;50.926;5.330;2022-08-27T10:06:10;21.50;99.90
19254;DHT22;9761;50.926;5.330;2022-08-27T10:08:39;21.70;99.90
19254;DHT22;9761;50.926;5.330;2022-08-27T10:11:09;21.50;99.90
19254;DHT22;9761;50.926;5.330;2022-08-27T10:13:39;22.00;99.90
19254;DHT22;9761;50.926;5.330;2022-08-27T10:16:17;22.00;99.90
19254;DHT22;9761;50.926;5.330;2022-08-27T10:18:50;21.50;99.90
19254;DHT22;9761;50.926;5.330;2022-08-27T10:21:23;21.40;99.90
19254;DHT22;9761;50.926;5.330;2022-08-27T10:23:57;21.70;99.90
19254;DHT22;9761;50.926;5.330;2022-08-27T10:26:26;22.00;99.90
19254;DHT22;9761;50.926;5.330;2022-08-27T10:28:56;21.90;99.90
19254;DHT22;9761;50.926;5.330;2022-08-27T10:31:28;22.00;99.90
19254;DHT22;9761;50.926;5.330;2022-08-27T10:34:02;21.80;99.90
19254;DHT22;9761;50.926;5.330;2022-08-27T10:36:37;22.10;99.90
19254;DHT22;9761;50.926;5.330;2022-08-27T10:39:06;22.20;99.90
19254;DHT22;9761;50.926;5.330;2022-08-27T10:41:37;22.30;99.90
19254;DHT22;9761;50.926;5.330;2022-08-27T10:44:14;22.30;99.90
19254;DHT22;9761;50.926;5.330;2022-08-27T10:46:47;22.40;99.90
19254;DHT22;9761;50.926;5.330;2022-08-27T10:49:25;22.30;99.90
19254;DHT22;9761;50.926;5.330;2022-08-27T10:52:13;22.60;99.90
19254;DHT22;9761;50.926;5.330;2022-08-27T10:54:44;23.00;99.90
19254;DHT22;9761;50.926;5.330;2022-08-27T10:57:14;22.40;99.90
19254;DHT22;9761;50.926;5.330;2022-08-27T10:59:43;22.50;99.90
19254;DHT22;9761;50.926;5.330;2022-08-27T11:02:13;23.00;99.90
19254;DHT22;9761;50.926;5.330;2022-08-27T11:04:50;23.00;99.90
19254;DHT22;9761;50.926;5.330;2022-08-27T11:07:37;22.80;99.90
19254;DHT22;9761;50.926;5.330;2022-08-27T11:23:55;23.30;99.90
19254;DHT22;9761;50.926;5.330;2022-08-27T11:26:25;22.80;99.90
19254;DHT22;9761;50.926;5.330;2022-08-27T11:34:04;23.20;99.90
19254;DHT22;9761;50.926;5.330;2022-08-27T11:37:03;23.00;99.90
19254;DHT22;9761;50.926;5.330;2022-08-27T11:48:33;23.30;99.90
19254;DHT22;9761;50.926;5.330;2022-08-27T11:56:18;23.10;99.90
19254;DHT22;9761;50.926;5.330;2022-08-27T11:58:46;23.00;99.90
19254;DHT22;9761;50.926;5.330;2022-08-27T12:01:14;22.80;99.90
19254;DHT22;9761;50.926;5.330;2022-08-27T12:03:43;22.60;99.90
19254;DHT22;9761;50.926;5.330;2022-08-27T12:06:21;23.00;99.90
19254;DHT22;9761;50.926;5.330;2022-08-27T12:17:33;23.20;99.90
19254;DHT22;9761;50.926;5.330;2022-08-27T12:20:08;23.20;99.90
19254;DHT22;9761;50.926;5.330;2022-08-27T12:22:53;23.30;99.90
19254;DHT22;9761;50.926;5.330;2022-08-27T12:25:39;22.90;99.90
19254;DHT22;9761;50.926;5.330;2022-08-27T12:28:07;22.90;99.90
19254;DHT22;9761;50.926;5.330;2022-08-27T12:30:35;22.60;99.90
19254;DHT22;9761;50.926;5.330;2022-08-27T12:33:11;22.60;99.90
19254;DHT22;9761;50.926;5.330;2022-08-27T12:35:42;22.60;99.90
19254;DHT22;9761;50.926;5.330;2022-08-27T12:38:11;22.40;99.90
19254;DHT22;9761;50.926;5.330;2022-08-27T12:40:39;22.00;99.90
19254;DHT22;9761;50.926;5.330;2022-08-27T12:43:20;21.70;99.90
19254;DHT22;9761;50.926;5.330;2022-08-27T12:46:00;21.50;99.90
19254;DHT22;9761;50.926;5.330;2022-08-27T12:48:43;21.40;99.90
19254;DHT22;9761;50.926;5.330;2022-08-27T12:51:13;21.70;99.90
19254;DHT22;9761;50.926;5.330;2022-08-27T12:53:41;21.90;99.90
19254;DHT22;9761;50.926;5.330;2022-08-27T12:56:24;21.90;99.90
19254;DHT22;9761;50.926;5.330;2022-08-27T12:58:54;22.10;99.90
19254;DHT22;9761;50.926;5.330;2022-08-27T13:01:29;22.30;99.90
19254;DHT22;9761;50.926;5.330;2022-08-27T13:03:58;22.40;99.90
19254;DHT22;9761;50.926;5.330;2022-08-27T13:06:34;22.20;99.90
19254;DHT22;9761;50.926;5.330;2022-08-27T13:09:02;21.80;99.90
19254;DHT22;9761;50.926;5.330;2022-08-27T13:11:30;22.10;99.90
19254;DHT22;9761;50.926;5.330;2022-08-27T13:14:08;22.70;99.90
19254;DHT22;9761;50.926;5.330;2022-08-27T13:16:36;22.70;99.90
19254;DHT22;9761;50.926;5.330;2022-08-27T13:19:03;22.30;99.90
19254;DHT22;9761;50.926;5.330;2022-08-27T13:24:30;23.30;99.90
19254;DHT22;9761;50.926;5.330;2022-08-27T13:41:07;23.20;99.90
19254;DHT22;9761;50.926;5.330;2022-08-27T13:43:47;23.20;99.90
19254;DHT22;9761;50.926;5.330;2022-08-27T13:51:32;23.70;99.90
19254;DHT22;9761;50.926;5.330;2022-08-27T13:54:16;23.70;99.90
19254;DHT22;9761;50.926;5.330;2022-08-27T14:12:20;23.20;99.90
19254;DHT22;9761;50.926;5.330;2022-08-27T14:14:51;23.00;99.90
19254;DHT22;9761;50.926;5.330;2022-08-27T14:17:23;22.70;99.90
19254;DHT22;9761;50.926;5.330;2022-08-27T14:19:50;22.90;99.90
19254;DHT22;9761;50.926;5.330;2022-08-27T14:22:16;22.90;99.90
19254;DHT22;9761;50.926;5.330;2022-08-27T14:24:43;22.70;99.90
19254;DHT22;9761;50.926;5.330;2022-08-27T14:27:12;22.80;99.90
19254;DHT22;9761;50.926;5.330;2022-08-27T14:29:41;23.00;99.90
19254;DHT22;9761;50.926;5.330;2022-08-27T14:32:08;23.00;99.90
19254;DHT22;9761;50.926;5.330;2022-08-27T14:34:49;22.60;99.90
19254;DHT22;9761;50.926;5.330;2022-08-27T14:37:16;22.80;99.90
19254;DHT22;9761;50.926;5.330;2022-08-27T14:39:43;22.70;99.90
19254;DHT22;9761;50.926;5.330;2022-08-27T14:42:10;22.60;99.90
19254;DHT22;9761;50.926;5.330;2022-08-27T14:44:37;22.90;99.90
19254;DHT22;9761;50.926;5.330;2022-08-27T14:47:06;23.10;99.90
19254;DHT22;9761;50.926;5.330;2022-08-27T14:49:40;23.10;99.90
19254;DHT22;9761;50.926;5.330;2022-08-27T14:52:08;22.90;99.90
19254;DHT22;9761;50.926;5.330;2022-08-27T14:54:35;22.70;99.90
19254;DHT22;9761;50.926;5.330;2022-08-27T15:11:59;22.60;99.90
19254;DHT22;9761;50.926;5.330;2022-08-27T15:14:27;22.80;99.90
19254;DHT22;9761;50.926;5.330;2022-08-27T15:16:55;22.70;99.90
19254;DHT22;9761;50.926;5.330;2022-08-27T15:19:32;22.80;99.90
19254;DHT22;9761;50.926;5.330;2022-08-27T15:22:01;22.70;99.90
19254;DHT22;9761;50.926;5.330;2022-08-27T16:00:33;22.30;99.90
19254;DHT22;9761;50.926;5.330;2022-08-27T16:11:04;22.50;99.90
19254;DHT22;9761;50.926;5.330;2022-08-27T16:18:44;22.50;99.90
19254;DHT22;9761;50.926;5.330;2022-08-27T16:21:25;22.30;99.90
19254;DHT22;9761;50.926;5.330;2022-08-27T16:23:53;22.20;99.90
19254;DHT22;9761;50.926;5.330;2022-08-27T16:44:33;22.90;99.90
19254;DHT22;9761;50.926;5.330;2022-08-27T16:47:02;22.80;99.90
19254;DHT22;9761;50.926;5.330;2022-08-27T16:49:42;22.80;99.90
19254;DHT22;9761;50.926;5.330;2022-08-27T16:52:27;22.60;99.90
19254;DHT22;9761;50.926;5.330;2022-08-27T16:55:06;22.10;99.90
19254;DHT22;9761;50.926;5.330;2022-08-27T17:00:54;22.10;99.90
19254;DHT22;9761;50.926;5.330;2022-08-27T17:03:22;22.30;99.90
19254;DHT22;9761;50.926;5.330;2022-08-27T17:05:50;22.30;99.90
19254;DHT22;9761;50.926;5.330;2022-08-27T17:08:34;22.20;99.90
19254;DHT22;9761;50.926;5.330;2022-08-27T17:11:04;22.40;99.90
19254;DHT22;9761;50.926;5.330;2022-08-27T17:13:34;22.40;99.90
19254;DHT22;9761;50.926;5.330;2022-08-27T17:16:07;22.60;99.90
19254;DHT22;9761;50.926;5.330;2022-08-27T17:18:45;22.70;99.90
19254;DHT22;9761;50.926;5.330;2022-08-27T17:21:26;22.70;99.90
19254;DHT22;9761;50.926;5.330;2022-08-27T17:23:54;22.60;99.90
19254;DHT22;9761;50.926;5.330;2022-08-27T17:26:23;22.60;99.90
19254;DHT22;9761;50.926;5.330;2022-08-27T17:29:02;22.50;99.90
19254;DHT22;9761;50.926;5.330;2022-08-27T17:31:32;22.50;99.90
19254;DHT22;9761;50.926;5.330;2022-08-27T17:34:01;22.60;99.90
19254;DHT22;9761;50.926;5.330;2022-08-27T17:36:47;22.50;99.90
19254;DHT22;9761;50.926;5.330;2022-08-27T17:39:27;22.40;99.90
19254;DHT22;9761;50.926;5.330;2022-08-27T17:42:12;22.40;99.90
19254;DHT22;9761;50.926;5.330;2022-08-27T17:48:14;22.30;99.90
19254;DHT22;9761;50.926;5.330;2022-08-27T17:50:43;22.30;99.90
19254;DHT22;9761;50.926;5.330;2022-08-27T17:56:19;22.20;99.90
19254;DHT22;9761;50.926;5.330;2022-08-27T18:12:44;22.20;99.90
19254;DHT22;9761;50.926;5.330;2022-08-27T18:17:37;22.00;99.90
19254;DHT22;9761;50.926;5.330;2022-08-27T18:20:06;22.10;99.90
19254;DHT22;9761;50.926;5.330;2022-08-27T18:22:34;22.10;99.90
19254;DHT22;9761;50.926;5.330;2022-08-27T18:28:24;22.00;99.90
19254;DHT22;9761;50.926;5.330;2022-08-27T18:30:53;22.00;99.90
19254;DHT22;9761;50.926;5.330;2022-08-27T18:33:21;21.90;99.90
19254;DHT22;9761;50.926;5.330;2022-08-27T18:36:01;21.80;99.90
19254;DHT22;9761;50.926;5.330;2022-08-27T18:38:29;21.80;99.90
19254;DHT22;9761;50.926;5.330;2022-08-27T18:40:57;21.80;99.90
19254;DHT22;9761;50.926;5.330;2022-08-27T18:43:28;21.50;99.90
19254;DHT22;9761;50.926;5.330;2022-08-27T18:46:00;21.70;99.90
19254;DHT22;9761;50.926;5.330;2022-08-27T18:48:40;21.60;99.90
19254;DHT22;9761;50.926;5.330;2022-08-27T18:54:25;21.70;99.90
19254;DHT22;9761;50.926;5.330;2022-08-27T18:56:55;21.60;99.90
19254;DHT22;9761;50.926;5.330;2022-08-27T19:05:52;21.40;99.90
19254;DHT22;9761;50.926;5.330;2022-08-27T19:08:19;21.40;99.90
19254;DHT22;9761;50.926;5.330;2022-08-27T19:11:00;21.20;99.90
19254;DHT22;9761;50.926;5.330;2022-08-27T19:27:45;21.00;99.90
19254;DHT22;9761;50.926;5.330;2022-08-27T19:41:04;21.00;99.90
19254;DHT22;9761;50.926;5.330;2022-08-27T19:57:23;21.10;99.90
19254;DHT22;9761;50.926;5.330;2022-08-27T20:00:08;21.20;99.90
19254;DHT22;9761;50.926;5.330;2022-08-27T20:02:49;21.20;99.90
19254;DHT22;9761;50.926;5.330;2022-08-27T20:05:18;20.80;99.90
19254;DHT22;9761;50.926;5.330;2022-08-27T20:07:46;20.50;99.90
19254;DHT22;9761;50.926;5.330;2022-08-27T20:10:15;20.70;99.90
19254;DHT22;9761;50.926;5.330;2022-08-27T20:31:30;20.70;99.90
19254;DHT22;9761;50.926;5.330;2022-08-27T20:33:57;20.60;99.90
19254;DHT22;9761;50.926;5.330;2022-08-27T20:36:25;20.70;99.90
19254;DHT22;9761;50.926;5.330;2022-08-27T20:41:50;20.70;99.90
19254;DHT22;9761;50.926;5.330;2022-08-27T20:44:29;20.70;99.90
19254;DHT22;9761;50.926;5.330;2022-08-27T20:50:26;20.60;99.90
19254;DHT22;9761;50.926;5.330;2022-08-27T20:52:56;20.40;99.90
19254;DHT22;9761;50.926;5.330;2022-08-27T20:55:26;20.50;99.90
19254;DHT22;9761;50.926;5.330;2022-08-27T21:03:26;20.80;99.90
19254;DHT22;9761;50.926;5.330;2022-08-27T21:45:41;20.10;99.90
19254;DHT22;9761;50.926;5.330;2022-08-27T21:48:20;20.20;99.90
19254;DHT22;9761;50.926;5.330;2022-08-27T22:01:55;20.30;99.90
19254;DHT22;9761;50.926;5.330;2022-08-27T22:04:23;20.00;99.90
19254;DHT22;9761;50.926;5.330;2022-08-27T22:07:06;20.00;99.90
19254;DHT22;9761;50.926;5.330;2022-08-27T22:09:41;20.00;99.90
19254;DHT22;9761;50.926;5.330;2022-08-27T22:14:53;19.80;99.90
19254;DHT22;9761;50.926;5.330;2022-08-27T22:17:30;19.90;99.90
19254;DHT22;9761;50.926;5.330;2022-08-27T22:19:58;20.00;99.90
19254;DHT22;9761;50.926;5.330;2022-08-27T22:22:36;20.00;99.90
19254;DHT22;9761;50.926;5.330;2022-08-27T22:25:03;19.90;99.90
19254;DHT22;9761;50.926;5.330;2022-08-27T22:27:30;20.00;99.90
19254;DHT22;9761;50.926;5.330;2022-08-27T22:29:59;20.00;99.90
19254;DHT22;9761;50.926;5.330;2022-08-27T22:32:26;20.00;99.90
19254;DHT22;9761;50.926;5.330;2022-08-27T22:37:32;19.80;99.90
19254;DHT22;9761;50.926;5.330;2022-08-27T22:40:00;19.80;99.90
19254;DHT22;9761;50.926;5.330;2022-08-27T22:45:30;19.70;99.90
19254;DHT22;9761;50.926;5.330;2022-08-27T22:47:58;19.70;99.90
19254;DHT22;9761;50.926;5.330;2022-08-27T22:50:25;19.70;99.90
19254;DHT22;9761;50.926;5.330;2022-08-27T22:53:12;19.80;99.90
19254;DHT22;9761;50.926;5.330;2022-08-27T22:55:41;19.70;99.90
19254;DHT22;9761;50.926;5.330;2022-08-27T22:58:17;19.60;99.90
19254;DHT22;9761;50.926;5.330;2022-08-27T23:00:44;19.50;99.90
19254;DHT22;9761;50.926;5.330;2022-08-27T23:03:11;19.50;99.90
19254;DHT22;9761;50.926;5.330;2022-08-27T23:05:42;19.50;99.90
19254;DHT22;9761;50.926;5.330;2022-08-27T23:08:09;19.60;99.90
19254;DHT22;9761;50.926;5.330;2022-08-27T23:10:50;19.60;99.90
19254;DHT22;9761;50.926;5.330;2022-08-27T23:13:19;19.50;99.90
19254;DHT22;9761;50.926;5.330;2022-08-27T23:15:46;19.50;99.90
19254;DHT22;9761;50.926;5.330;2022-08-27T23:18:21;19.60;99.90
19254;DHT22;9761;50.926;5.330;2022-08-27T23:20:47;19.60;99.90
19254;DHT22;9761;50.926;5.330;2022-08-27T23:23:14;19.60;99.90
19254;DHT22;9761;50.926;5.330;2022-08-27T23:25:56;19.60;99.90
19254;DHT22;9761;50.926;5.330;2022-08-27T23:28:40;19.70;99.90